Time;durP1;ratioP1;P1;durP2;ratioP2;P2;SDS_P1;SDS_P2;PMS_P1;PMS_P2;Temp;Humidity;BMP_temperature;BMP_pressure;BME280_temperature;BME280_humidity;BME280_pressure;Samples;Min_cycle;Max_cycle;Signal;HPM_P1;HPM_P2
2021/10/19 00:00:05;;;;;;;10.63;8.90;;;6.40;99.90;;;;;;5048664;28;20578;-71
2021/10/19 00:02:32;;;;;;;9.07;8.10;;;6.40;99.90;;;;;;5048109;28;20205;-71
2021/10/19 00:04:58;;;;;;;9.30;8.15;;;6.40;99.90;;;;;;5049020;28;20231;-71
2021/10/19 00:07:26;;;;;;;13.13;8.90;;;6.40;99.90;;;;;;5048975;28;20204;-71
2021/10/19 00:09:53;;;;;;;11.05;8.52;;;6.30;99.90;;;;;;5049019;28;20707;-71
2021/10/19 00:12:20;;;;;;;10.95;9.65;;;6.40;99.90;;;;;;5049052;28;20224;-71
2021/10/19 00:14:47;;;;;;;10.38;8.60;;;6.30;99.90;;;;;;5044636;28;20240;-71
2021/10/19 00:17:13;;;;;;;19.83;9.27;;;6.30;99.90;;;;;;5048267;28;20209;-71
2021/10/19 00:19:40;;;;;;;10.73;8.13;;;6.30;99.90;;;;;;5048094;28;20216;-71
2021/10/19 00:22:07;;;;;;;9.82;7.65;;;6.30;99.90;;;;;;5044883;28;20704;-71
2021/10/19 00:24:35;;;;;;;9.73;8.02;;;6.30;99.90;;;;;;5048077;28;20704;-71
2021/10/19 00:27:04;;;;;;;10.50;8.63;;;6.30;99.90;;;;;;5048394;28;20573;-71
2021/10/19 00:29:31;;;;;;;9.82;8.73;;;6.30;99.90;;;;;;5049017;28;20235;-71
2021/10/19 00:31:58;;;;;;;12.82;9.07;;;6.30;99.90;;;;;;5048777;28;20512;-70
2021/10/19 00:34:25;;;;;;;10.63;8.63;;;6.20;99.90;;;;;;5048860;28;20602;-71
2021/10/19 00:36:51;;;;;;;9.15;7.93;;;6.20;99.90;;;;;;5048842;28;20205;-71
2021/10/19 00:39:18;;;;;;;9.95;8.27;;;6.20;99.90;;;;;;5048963;28;20204;-71
2021/10/19 00:41:47;;;;;;;11.50;9.10;;;6.20;99.90;;;;;;5048397;28;20212;-71
2021/10/19 00:44:14;;;;;;;10.32;7.70;;;6.20;99.90;;;;;;5048575;28;20201;-71
2021/10/19 00:46:42;;;;;;;9.88;8.30;;;6.20;99.90;;;;;;5047750;28;20224;-71
2021/10/19 00:49:08;;;;;;;12.88;9.05;;;6.20;99.90;;;;;;5048574;28;20213;-71
2021/10/19 00:51:36;;;;;;;9.65;8.40;;;6.30;99.90;;;;;;5048315;28;20201;-70
2021/10/19 00:54:03;;;;;;;9.52;8.60;;;6.30;99.90;;;;;;5048489;28;20221;-70
2021/10/19 00:56:30;;;;;;;9.70;7.57;;;6.30;99.90;;;;;;5047475;28;20224;-71
2021/10/19 00:58:58;;;;;;;10.70;7.65;;;6.40;99.90;;;;;;5048410;28;20209;-71
2021/10/19 01:01:26;;;;;;;8.68;7.50;;;6.40;99.90;;;;;;5048210;28;20205;-71
2021/10/19 01:03:52;;;;;;;9.25;7.30;;;6.40;99.90;;;;;;5048143;28;20665;-71
2021/10/19 01:06:20;;;;;;;9.20;8.20;;;6.40;99.90;;;;;;5047812;28;20231;-71
2021/10/19 01:08:47;;;;;;;11.20;8.07;;;6.40;99.90;;;;;;5047895;28;20201;-71
2021/10/19 01:11:14;;;;;;;10.20;8.02;;;6.40;99.90;;;;;;5048173;28;20826;-71
2021/10/19 01:13:41;;;;;;;9.75;8.27;;;6.40;99.90;;;;;;5047892;28;20728;-71
2021/10/19 01:16:11;;;;;;;9.48;8.00;;;6.40;99.90;;;;;;5047770;28;20233;-71
2021/10/19 01:18:39;;;;;;;11.82;8.68;;;6.40;99.90;;;;;;5047572;28;20205;-70
2021/10/19 01:21:09;;;;;;;9.90;8.23;;;6.50;99.90;;;;;;5048297;28;20205;-71
2021/10/19 01:23:36;;;;;;;10.52;8.68;;;6.50;99.90;;;;;;5047808;28;20197;-70
2021/10/19 01:26:04;;;;;;;8.85;7.63;;;6.50;99.90;;;;;;5047202;28;21092;-71
2021/10/19 01:28:31;;;;;;;11.18;8.15;;;6.50;99.90;;;;;;5047760;28;20228;-71
2021/10/19 01:30:58;;;;;;;9.48;8.23;;;6.50;99.90;;;;;;5047725;28;20223;-71
2021/10/19 01:33:25;;;;;;;9.55;7.95;;;6.60;99.90;;;;;;5047923;28;20227;-71
2021/10/19 01:35:53;;;;;;;10.85;7.85;;;6.60;99.90;;;;;;5047032;28;20244;-71
2021/10/19 01:38:23;;;;;;;11.25;8.43;;;6.60;99.90;;;;;;5047783;28;20575;-71
2021/10/19 01:40:51;;;;;;;10.38;7.95;;;6.60;99.90;;;;;;5076111;22;20241;-93
2021/10/19 01:43:20;;;;;;;9.93;8.05;;;6.60;99.90;;;;;;5082479;28;20205;-91
2021/10/19 02:01:04;;;;;;;12.50;7.72;;;6.70;99.90;;;;;;5036481;28;20217;-93
2021/10/19 02:04:01;;;;;;;14.23;8.25;;;6.70;99.90;;;;;;5038115;28;20189;-94
2021/10/19 02:35:01;;;;;;;10.85;8.05;;;7.10;99.90;;;;;;5061953;28;20227;-92
2021/10/19 02:41:32;;;;;;;8.95;8.10;;;7.10;99.90;;;;;;5079782;28;20221;-91
2021/10/19 02:51:37;;;;;;;10.80;9.10;;;7.40;99.90;;;;;;5077707;28;20197;-93
2021/10/19 03:08:04;;;;;;;6.53;5.82;;;7.70;99.90;;;;;;5056219;22;21557;-70
2021/10/19 03:10:31;;;;;;;5.78;5.18;;;8.00;99.90;;;;;;5073088;28;20199;-70
2021/10/19 03:12:57;;;;;;;6.32;4.95;;;8.10;99.90;;;;;;5073260;28;20220;-70
2021/10/19 03:15:24;;;;;;;5.40;4.90;;;8.30;99.90;;;;;;5063944;28;20228;-70
2021/10/19 03:17:51;;;;;;;6.15;5.47;;;8.50;99.90;;;;;;5052911;28;20266;-70
2021/10/19 03:20:18;;;;;;;7.70;5.90;;;8.60;99.90;;;;;;5053333;28;20205;-70
2021/10/19 03:22:45;;;;;;;5.68;5.10;;;8.80;99.90;;;;;;5053464;28;20205;-70
2021/10/19 03:25:13;;;;;;;6.18;5.40;;;8.80;99.90;;;;;;5053265;28;20221;-70
2021/10/19 03:27:40;;;;;;;7.78;5.35;;;9.00;99.90;;;;;;5052675;28;20208;-70
2021/10/19 03:30:08;;;;;;;6.30;5.70;;;9.10;99.90;;;;;;5053185;28;20275;-69
2021/10/19 03:32:35;;;;;;;5.95;5.05;;;9.20;99.90;;;;;;5052095;28;20205;-70
2021/10/19 03:35:02;;;;;;;6.18;4.72;;;9.20;99.90;;;;;;5052537;28;20688;-70
2021/10/19 03:37:29;;;;;;;5.45;4.95;;;9.30;99.90;;;;;;5052079;28;20200;-69
2021/10/19 03:39:56;;;;;;;6.40;5.03;;;9.40;99.90;;;;;;5048665;28;20222;-70
2021/10/19 03:42:24;;;;;;;6.25;5.15;;;9.40;99.90;;;;;;5050752;28;20193;-70
2021/10/19 03:44:50;;;;;;;7.22;5.80;;;9.50;99.90;;;;;;5051989;28;20633;-70
2021/10/19 03:47:17;;;;;;;6.00;5.22;;;9.60;99.90;;;;;;5050343;28;20204;-70
2021/10/19 03:49:44;;;;;;;5.10;4.60;;;9.60;99.90;;;;;;5052184;28;20208;-70
2021/10/19 03:52:11;;;;;;;5.25;4.75;;;9.70;99.90;;;;;;5052589;28;20204;-69
2021/10/19 03:54:38;;;;;;;6.65;5.30;;;9.70;99.90;;;;;;5051690;28;20228;-69
2021/10/19 03:57:07;;;;;;;6.65;5.28;;;9.80;99.90;;;;;;5051707;28;20197;-70
2021/10/19 03:59:35;;;;;;;5.85;5.25;;;9.80;99.90;;;;;;5052035;28;20608;-70
2021/10/19 04:02:02;;;;;;;5.13;4.68;;;9.90;99.90;;;;;;5053695;28;20292;-70
2021/10/19 04:04:29;;;;;;;5.40;4.70;;;9.90;99.90;;;;;;5052887;28;20193;-70
2021/10/19 04:06:56;;;;;;;5.82;5.15;;;9.90;99.90;;;;;;5051541;28;20205;-70
2021/10/19 04:09:22;;;;;;;5.00;4.47;;;10.00;99.90;;;;;;5052161;28;20205;-70
2021/10/19 04:11:49;;;;;;;8.88;5.22;;;10.00;99.90;;;;;;5051899;28;20200;-69
2021/10/19 04:14:16;;;;;;;6.60;5.77;;;10.00;99.90;;;;;;5051392;28;20459;-69
2021/10/19 04:16:44;;;;;;;6.68;5.60;;;10.00;99.90;;;;;;5051356;28;20582;-69
2021/10/19 04:19:10;;;;;;;7.60;5.60;;;10.10;99.90;;;;;;5051586;28;20703;-69
2021/10/19 04:21:38;;;;;;;5.78;5.10;;;10.10;99.90;;;;;;5050829;28;20862;-69
2021/10/19 04:24:05;;;;;;;6.47;5.78;;;10.00;99.90;;;;;;5050814;28;20248;-69
2021/10/19 04:26:32;;;;;;;6.10;5.50;;;10.10;99.90;;;;;;5050677;28;20217;-69
2021/10/19 04:28:58;;;;;;;6.97;6.07;;;10.10;99.90;;;;;;5051242;28;20240;-69
2021/10/19 04:31:25;;;;;;;6.85;6.15;;;10.20;99.90;;;;;;5051757;28;20197;-69
2021/10/19 04:33:53;;;;;;;6.18;5.55;;;10.20;99.90;;;;;;5051799;28;20976;-69
2021/10/19 04:36:20;;;;;;;6.78;5.47;;;10.20;99.90;;;;;;5051525;28;20221;-69
2021/10/19 04:38:46;;;;;;;5.70;5.10;;;10.20;99.90;;;;;;5051514;28;20571;-69
2021/10/19 04:41:13;;;;;;;6.22;5.25;;;10.20;99.90;;;;;;5051942;28;20208;-69
2021/10/19 04:43:40;;;;;;;6.95;6.10;;;10.20;99.90;;;;;;5051255;28;20197;-69
2021/10/19 04:46:06;;;;;;;7.65;5.75;;;10.30;99.90;;;;;;5051059;28;20220;-69
2021/10/19 04:48:33;;;;;;;7.68;5.80;;;10.30;99.90;;;;;;5051286;28;20212;-69
2021/10/19 04:51:01;;;;;;;8.02;5.53;;;10.30;99.90;;;;;;5051386;28;20201;-69
2021/10/19 04:53:28;;;;;;;7.20;6.22;;;10.40;99.90;;;;;;5050241;28;20217;-69
2021/10/19 04:55:55;;;;;;;7.47;6.68;;;10.50;99.90;;;;;;5050487;28;20217;-69
2021/10/19 04:58:21;;;;;;;6.50;5.70;;;10.50;99.90;;;;;;5051314;28;20197;-69
2021/10/19 05:00:49;;;;;;;7.40;5.65;;;10.60;99.90;;;;;;5051166;28;20588;-69
2021/10/19 05:03:17;;;;;;;6.88;6.18;;;10.60;99.90;;;;;;5051769;28;20304;-69
2021/10/19 05:05:44;;;;;;;6.43;5.30;;;10.60;99.90;;;;;;5051404;28;20237;-69
2021/10/19 05:08:13;;;;;;;6.03;5.28;;;10.70;99.90;;;;;;5051804;28;20750;-69
2021/10/19 05:10:40;;;;;;;6.30;5.70;;;10.60;99.90;;;;;;5051888;28;20292;-70
2021/10/19 05:13:06;;;;;;;8.20;5.38;;;10.70;99.90;;;;;;5051837;28;20696;-69
2021/10/19 05:15:33;;;;;;;6.13;5.50;;;10.70;99.90;;;;;;5051539;28;20225;-69
2021/10/19 05:18:00;;;;;;;7.88;5.70;;;10.70;99.90;;;;;;5051075;28;20255;-69
2021/10/19 05:20:27;;;;;;;7.72;5.43;;;10.80;99.90;;;;;;5051163;28;20198;-69
2021/10/19 05:22:54;;;;;;;6.55;5.43;;;10.80;99.90;;;;;;5050814;28;20201;-69
2021/10/19 05:25:22;;;;;;;7.13;5.35;;;10.90;99.90;;;;;;5050927;28;20224;-69
2021/10/19 05:27:48;;;;;;;6.20;5.55;;;10.90;99.90;;;;;;5050156;28;20698;-69
2021/10/19 05:30:16;;;;;;;7.00;5.07;;;10.90;99.90;;;;;;5050928;28;20552;-69
2021/10/19 05:32:43;;;;;;;6.55;5.85;;;10.80;99.90;;;;;;5050525;28;20704;-69
2021/10/19 05:35:10;;;;;;;7.63;6.05;;;10.80;99.90;;;;;;5050506;28;20229;-69
2021/10/19 05:37:37;;;;;;;6.20;5.60;;;10.80;99.90;;;;;;5049865;28;20205;-69
2021/10/19 05:40:05;;;;;;;6.00;5.35;;;10.70;99.90;;;;;;5050611;28;20205;-69
2021/10/19 05:42:33;;;;;;;7.47;6.15;;;10.70;99.90;;;;;;5050660;28;20208;-68
2021/10/19 05:44:59;;;;;;;7.70;6.10;;;10.70;99.90;;;;;;5050318;28;20221;-69
2021/10/19 05:47:26;;;;;;;8.30;6.43;;;10.70;99.90;;;;;;5050385;28;20205;-69
2021/10/19 05:49:53;;;;;;;6.50;5.72;;;10.70;99.90;;;;;;5050135;28;20205;-69
2021/10/19 05:52:20;;;;;;;7.20;5.72;;;10.60;99.90;;;;;;5050748;28;20267;-69
2021/10/19 05:54:47;;;;;;;7.40;5.80;;;10.60;99.90;;;;;;5050306;28;20232;-69
2021/10/19 05:57:13;;;;;;;7.72;6.95;;;10.60;99.90;;;;;;5050272;28;20676;-69
2021/10/19 05:59:41;;;;;;;7.55;6.75;;;10.60;99.90;;;;;;5051035;28;20208;-69
2021/10/19 06:02:08;;;;;;;7.70;6.90;;;10.50;99.90;;;;;;5052060;28;20205;-69
2021/10/19 06:04:35;;;;;;;7.47;6.55;;;10.50;99.90;;;;;;5051693;28;20201;-69
2021/10/19 06:07:02;;;;;;;8.70;7.70;;;10.50;99.90;;;;;;5054681;28;20208;-69
2021/10/19 06:09:29;;;;;;;7.68;6.93;;;10.50;99.90;;;;;;5055266;28;20209;-69
2021/10/19 06:11:57;;;;;;;9.07;8.15;;;10.50;99.90;;;;;;5054909;28;20208;-69
2021/10/19 06:14:25;;;;;;;8.43;7.40;;;10.40;99.90;;;;;;5054786;28;20630;-69
2021/10/19 06:16:53;;;;;;;8.07;7.28;;;10.50;99.90;;;;;;5054027;28;20205;-69
2021/10/19 06:19:20;;;;;;;8.30;6.55;;;10.50;99.90;;;;;;5054639;28;20695;-69
2021/10/19 06:21:48;;;;;;;7.80;7.07;;;10.50;99.90;;;;;;5054496;28;20209;-69
2021/10/19 06:24:15;;;;;;;8.27;6.70;;;10.50;99.90;;;;;;5054545;28;20201;-68
2021/10/19 06:26:42;;;;;;;9.30;6.35;;;10.50;99.90;;;;;;5053936;28;20217;-69
2021/10/19 06:29:10;;;;;;;7.97;6.53;;;10.50;99.90;;;;;;5054613;28;20552;-68
2021/10/19 06:31:37;;;;;;;8.23;6.35;;;10.50;99.90;;;;;;5054400;28;20579;-69
2021/10/19 06:34:06;;;;;;;8.60;6.97;;;10.50;99.90;;;;;;5054527;28;20229;-69
2021/10/19 06:36:33;;;;;;;8.93;6.75;;;10.50;99.90;;;;;;5053746;28;20221;-68
2021/10/19 06:39:00;;;;;;;7.50;6.80;;;10.50;99.90;;;;;;5054113;28;20683;-68
2021/10/19 06:41:27;;;;;;;8.30;5.90;;;10.60;99.90;;;;;;5054297;28;20208;-69
2021/10/19 06:43:53;;;;;;;6.07;5.47;;;10.70;99.90;;;;;;5052975;28;20214;-69
2021/10/19 06:46:20;;;;;;;7.75;6.00;;;10.80;99.90;;;;;;5052895;28;20640;-69
2021/10/19 06:48:47;;;;;;;6.85;5.57;;;10.80;99.90;;;;;;5053243;28;20196;-68
2021/10/19 06:51:15;;;;;;;5.82;5.22;;;10.80;99.90;;;;;;5053498;28;20197;-68
2021/10/19 06:53:41;;;;;;;5.53;4.97;;;10.80;99.90;;;;;;5053060;28;20193;-68
2021/10/19 06:56:08;;;;;;;6.30;5.10;;;10.90;99.90;;;;;;5052622;28;20216;-68
2021/10/19 06:58:35;;;;;;;7.30;5.15;;;10.90;99.90;;;;;;5053441;28;20552;-69
2021/10/19 07:01:05;;;;;;;5.72;4.93;;;10.90;99.90;;;;;;5053286;28;20193;-68
2021/10/19 07:03:32;;;;;;;5.85;5.10;;;10.90;99.90;;;;;;5053166;28;20197;-68
2021/10/19 07:06:02;;;;;;;6.50;4.80;;;10.90;99.90;;;;;;5052402;28;20272;-68
2021/10/19 07:08:30;;;;;;;5.05;4.13;;;10.90;99.90;;;;;;5053394;28;20251;-68
2021/10/19 07:10:57;;;;;;;5.78;4.10;;;10.90;99.90;;;;;;5053380;28;20205;-68
2021/10/19 07:13:24;;;;;;;4.40;3.92;;;10.90;99.90;;;;;;5053193;28;20208;-68
2021/10/19 07:15:53;;;;;;;4.93;4.15;;;11.00;99.90;;;;;;5052757;28;20229;-68
2021/10/19 07:18:20;;;;;;;4.47;4.07;;;11.00;99.90;;;;;;5052745;28;20672;-68
2021/10/19 07:20:47;;;;;;;5.00;4.32;;;11.10;99.90;;;;;;5053210;28;20201;-68
2021/10/19 07:23:14;;;;;;;4.80;4.13;;;11.10;99.90;;;;;;5053382;28;20213;-68
2021/10/19 07:25:42;;;;;;;4.72;4.22;;;11.10;99.90;;;;;;5052943;28;20765;-68
2021/10/19 07:28:08;;;;;;;4.15;3.15;;;11.10;99.90;;;;;;5053142;28;20209;-68
2021/10/19 07:30:35;;;;;;;5.63;3.50;;;11.10;99.90;;;;;;5053104;28;20197;-68
2021/10/19 07:33:02;;;;;;;4.60;3.47;;;11.20;99.90;;;;;;5053074;28;20614;-69
2021/10/19 07:35:29;;;;;;;3.75;3.45;;;11.20;99.90;;;;;;5053304;28;20224;-68
2021/10/19 07:37:56;;;;;;;5.35;4.30;;;11.30;99.90;;;;;;5052364;28;20696;-68
2021/10/19 07:40:23;;;;;;;4.03;3.63;;;11.30;99.90;;;;;;5053030;28;20208;-68
2021/10/19 07:42:51;;;;;;;4.10;3.70;;;11.40;99.90;;;;;;5083064;22;20614;-72
2021/10/19 07:45:20;;;;;;;4.20;3.70;;;11.40;99.90;;;;;;5072090;28;20220;-72
2021/10/19 07:47:47;;;;;;;3.85;3.47;;;11.50;99.90;;;;;;5072290;28;20270;-71
2021/10/19 07:50:17;;;;;;;3.58;3.28;;;11.50;99.90;;;;;;5072267;28;20201;-72
2021/10/19 07:52:43;;;;;;;4.10;3.05;;;11.60;99.90;;;;;;5072486;28;20200;-71
2021/10/19 07:55:11;;;;;;;3.05;2.75;;;11.60;99.90;;;;;;5071921;28;20227;-72
2021/10/19 07:57:43;;;;;;;4.10;3.25;;;11.70;99.90;;;;;;5071817;28;20205;-71
2021/10/19 08:00:13;;;;;;;5.80;3.60;;;11.70;99.90;;;;;;5071983;28;20208;-72
2021/10/19 08:02:42;;;;;;;3.45;3.05;;;11.80;99.90;;;;;;5072344;28;20208;-71
2021/10/19 08:05:13;;;;;;;3.50;3.20;;;11.90;99.90;;;;;;5072113;28;20216;-72
2021/10/19 08:07:40;;;;;;;4.10;3.65;;;11.90;99.90;;;;;;5071687;28;20208;-71
2021/10/19 08:10:08;;;;;;;3.60;3.30;;;11.90;99.90;;;;;;5072038;28;20204;-71
2021/10/19 08:12:39;;;;;;;4.63;3.33;;;11.90;99.90;;;;;;5072366;28;20204;-72
2021/10/19 08:15:07;;;;;;;6.30;3.63;;;11.90;99.90;;;;;;5071736;28;20307;-72
2021/10/19 08:17:35;;;;;;;4.38;3.20;;;12.00;99.90;;;;;;5071178;28;20200;-71
2021/10/19 08:20:02;;;;;;;3.70;3.40;;;12.10;99.90;;;;;;5071768;28;20208;-71
2021/10/19 08:22:30;;;;;;;5.85;3.55;;;12.10;99.90;;;;;;5071754;28;20211;-71
2021/10/19 08:24:58;;;;;;;4.10;3.00;;;12.10;99.90;;;;;;5071518;28;20224;-71
2021/10/19 08:27:25;;;;;;;6.80;4.00;;;12.10;99.90;;;;;;5071070;28;20698;-71
2021/10/19 08:29:52;;;;;;;4.78;3.40;;;12.20;99.90;;;;;;5070521;28;20459;-71
2021/10/19 08:32:20;;;;;;;3.90;3.42;;;12.20;99.90;;;;;;5071910;28;20208;-72
2021/10/19 08:34:48;;;;;;;3.28;3.08;;;12.20;99.90;;;;;;5071205;28;20224;-72
2021/10/19 08:37:18;;;;;;;3.58;2.63;;;12.30;99.90;;;;;;5063096;28;20209;-72
2021/10/19 08:39:46;;;;;;;4.70;3.47;;;12.30;99.90;;;;;;5049548;28;20208;-72
2021/10/19 08:42:14;;;;;;;3.83;3.42;;;12.40;99.90;;;;;;5048533;28;20577;-72
2021/10/19 08:44:44;;;;;;;5.07;3.40;;;12.40;99.90;;;;;;5049491;28;20221;-70
2021/10/19 08:47:12;;;;;;;3.13;2.83;;;12.40;99.90;;;;;;5049843;28;21016;-74
2021/10/19 08:49:39;;;;;;;4.55;3.20;;;12.50;99.90;;;;;;5049788;28;20200;-72
2021/10/19 08:52:08;;;;;;;6.90;3.08;;;12.50;99.90;;;;;;5050008;28;20235;-72
2021/10/19 08:54:36;;;;;;;3.08;2.67;;;12.50;99.90;;;;;;5049936;28;20213;-72
2021/10/19 08:57:04;;;;;;;3.78;3.38;;;12.40;99.90;;;;;;5049093;28;20680;-72
2021/10/19 08:59:33;;;;;;;3.40;3.10;;;12.40;99.90;;;;;;5050051;28;20304;-72
2021/10/19 09:02:01;;;;;;;4.85;3.70;;;12.40;99.90;;;;;;5049416;28;20558;-72
2021/10/19 09:04:29;;;;;;;3.35;3.05;;;12.40;99.90;;;;;;5048320;28;20213;-72
2021/10/19 09:06:57;;;;;;;4.00;3.60;;;12.30;99.90;;;;;;5049321;28;20324;-71
2021/10/19 09:09:27;;;;;;;4.55;3.97;;;12.30;99.90;;;;;;5050232;28;20203;-72
2021/10/19 09:11:56;;;;;;;4.10;3.70;;;12.30;99.90;;;;;;5049639;28;20232;-71
2021/10/19 09:14:30;;;;;;;4.20;3.80;;;12.30;99.90;;;;;;5049641;28;20517;-72
2021/10/19 09:16:57;;;;;;;4.38;3.90;;;12.20;99.90;;;;;;5049377;28;20458;-72
2021/10/19 09:19:24;;;;;;;4.10;3.70;;;12.20;99.90;;;;;;5050061;28;20315;-71
2021/10/19 09:21:53;;;;;;;4.07;3.67;;;12.20;99.90;;;;;;5049830;28;20204;-71
2021/10/19 09:24:24;;;;;;;7.13;4.50;;;12.20;99.90;;;;;;5049823;28;20808;-71
2021/10/19 09:26:55;;;;;;;4.57;4.05;;;12.10;99.90;;;;;;5049286;28;20196;-71
2021/10/19 09:29:25;;;;;;;4.32;3.85;;;12.10;99.90;;;;;;5050218;28;20235;-71
2021/10/19 09:31:53;;;;;;;4.40;3.75;;;12.10;99.90;;;;;;5049453;28;20664;-72
2021/10/19 09:34:21;;;;;;;6.18;4.18;;;12.10;99.90;;;;;;5050059;28;20207;-72
2021/10/19 09:36:50;;;;;;;4.25;3.85;;;12.20;99.90;;;;;;5049315;28;20708;-72
2021/10/19 09:39:32;;;;;;;4.40;4.00;;;12.20;99.90;;;;;;5049946;28;20197;-72
2021/10/19 09:42:00;;;;;;;4.80;3.83;;;12.20;99.90;;;;;;5049205;28;20680;-72
2021/10/19 09:44:27;;;;;;;5.00;3.70;;;12.20;99.90;;;;;;5049618;28;20201;-72
2021/10/19 09:46:55;;;;;;;5.47;3.72;;;12.30;99.90;;;;;;5048750;28;20212;-72
2021/10/19 09:49:23;;;;;;;3.58;3.28;;;12.30;99.90;;;;;;5049463;28;20254;-72
2021/10/19 09:51:51;;;;;;;3.42;3.10;;;12.40;99.90;;;;;;5049765;28;20553;-72
2021/10/19 09:54:21;;;;;;;3.85;3.42;;;12.50;99.90;;;;;;5049482;28;20676;-72
2021/10/19 09:56:48;;;;;;;5.30;3.10;;;12.50;99.90;;;;;;5048881;28;20217;-72
2021/10/19 09:59:18;;;;;;;3.22;2.95;;;12.50;99.90;;;;;;5049276;28;20583;-71
2021/10/19 10:01:45;;;;;;;3.97;3.58;;;12.60;99.90;;;;;;5049418;28;20262;-72
2021/10/19 10:04:12;;;;;;;3.15;2.80;;;12.60;99.90;;;;;;5049259;28;20228;-72
2021/10/19 10:06:41;;;;;;;3.40;3.08;;;12.60;99.90;;;;;;5048645;28;20229;-71
2021/10/19 10:09:08;;;;;;;3.30;3.00;;;12.70;99.90;;;;;;5049688;28;20300;-72
2021/10/19 10:11:38;;;;;;;3.38;3.08;;;12.70;99.90;;;;;;5049204;28;20204;-72
2021/10/19 10:14:05;;;;;;;3.95;3.15;;;12.60;99.90;;;;;;5049300;28;20274;-71
2021/10/19 10:16:44;;;;;;;3.40;3.10;;;12.60;99.90;;;;;;5048602;28;20306;-71
2021/10/19 10:19:12;;;;;;;4.00;3.60;;;12.60;99.90;;;;;;5049366;28;20200;-72
2021/10/19 10:21:47;;;;;;;6.40;3.10;;;12.50;99.90;;;;;;5048902;28;20201;-72
2021/10/19 10:24:14;;;;;;;5.95;3.15;;;12.50;99.90;;;;;;5049351;28;20561;-72
2021/10/19 10:26:41;;;;;;;3.97;3.40;;;12.50;99.90;;;;;;5048155;28;20220;-72
2021/10/19 10:29:10;;;;;;;3.42;3.13;;;12.50;99.90;;;;;;5049585;28;20204;-72
2021/10/19 10:31:48;;;;;;;3.20;2.85;;;12.40;99.90;;;;;;5048437;28;20209;-72
2021/10/19 10:34:15;;;;;;;3.40;3.10;;;12.40;99.90;;;;;;5047456;28;20676;-72
2021/10/19 10:36:45;;;;;;;4.88;3.40;;;12.40;99.90;;;;;;5047217;28;20704;-72
2021/10/19 10:39:13;;;;;;;3.33;3.03;;;12.40;99.90;;;;;;5049857;28;20197;-71
2021/10/19 10:41:42;;;;;;;5.97;3.67;;;12.30;99.90;;;;;;5049634;28;20602;-72
2021/10/19 10:44:10;;;;;;;3.55;2.63;;;12.30;99.90;;;;;;5050026;28;20574;-72
2021/10/19 10:46:37;;;;;;;3.20;2.90;;;12.40;99.90;;;;;;5049180;28;20312;-72
2021/10/19 10:49:11;;;;;;;3.15;2.85;;;12.40;99.90;;;;;;5049799;28;20204;-72
2021/10/19 10:51:39;;;;;;;4.60;3.25;;;12.40;99.90;;;;;;5050289;28;20197;-72
2021/10/19 10:54:07;;;;;;;3.58;2.92;;;12.50;99.90;;;;;;5053202;28;20205;-72
2021/10/19 10:56:43;;;;;;;3.88;3.20;;;12.50;99.90;;;;;;5052588;28;20225;-72
2021/10/19 10:59:10;;;;;;;3.35;2.95;;;12.50;99.90;;;;;;5053432;28;20204;-71
2021/10/19 11:01:37;;;;;;;3.53;3.22;;;12.50;99.90;;;;;;5053368;28;20485;-72
2021/10/19 11:04:07;;;;;;;3.25;2.95;;;12.50;99.90;;;;;;5053212;28;20205;-72
2021/10/19 11:06:35;;;;;;;4.88;3.50;;;12.60;99.90;;;;;;5052714;28;20220;-72
2021/10/19 11:09:06;;;;;;;2.90;2.70;;;12.70;99.90;;;;;;5053270;28;20212;-72
2021/10/19 11:11:36;;;;;;;4.00;3.70;;;12.80;99.90;;;;;;5053120;28;20244;-72
2021/10/19 11:14:06;;;;;;;3.17;2.88;;;12.90;99.90;;;;;;5053130;28;20291;-71
2021/10/19 11:16:34;;;;;;;3.40;3.10;;;13.00;99.90;;;;;;5052359;28;20229;-72
2021/10/19 11:19:03;;;;;;;3.40;3.05;;;13.00;99.90;;;;;;5052891;28;20216;-71
2021/10/19 11:21:32;;;;;;;3.55;2.80;;;13.10;99.90;;;;;;5052965;28;20213;-72
2021/10/19 11:23:59;;;;;;;3.20;2.90;;;13.20;99.90;;;;;;5052862;28;20672;-72
2021/10/19 11:26:26;;;;;;;2.63;2.40;;;13.20;99.90;;;;;;5052247;28;20213;-72
2021/10/19 11:28:56;;;;;;;3.05;2.75;;;13.30;99.90;;;;;;5052700;28;20204;-72
2021/10/19 11:31:24;;;;;;;2.92;2.67;;;13.30;99.90;;;;;;5052677;28;20205;-72
2021/10/19 11:33:50;;;;;;;3.40;3.10;;;13.30;99.90;;;;;;5052595;28;20201;-72
2021/10/19 11:36:17;;;;;;;2.50;2.30;;;13.30;99.90;;;;;;5052129;28;20221;-71
2021/10/19 11:38:48;;;;;;;2.97;2.58;;;13.30;99.90;;;;;;5052715;28;20471;-72
2021/10/19 11:41:17;;;;;;;2.97;2.55;;;13.30;99.90;;;;;;5052491;28;20216;-72
2021/10/19 11:43:44;;;;;;;5.00;2.93;;;13.40;99.90;;;;;;5052243;28;20201;-72
2021/10/19 11:46:13;;;;;;;2.90;2.65;;;13.40;99.90;;;;;;5052036;28;20995;-72
2021/10/19 11:48:40;;;;;;;3.47;2.60;;;13.50;99.90;;;;;;5052458;28;20205;-72
2021/10/19 11:51:11;;;;;;;2.63;2.42;;;13.50;99.90;;;;;;5052938;28;20204;-72
2021/10/19 11:53:39;;;;;;;3.03;2.60;;;13.50;99.90;;;;;;5052120;28;20300;-72
2021/10/19 11:56:09;;;;;;;3.15;2.85;;;13.60;99.90;;;;;;5051706;28;20227;-72
2021/10/19 11:58:35;;;;;;;3.90;2.90;;;13.60;99.90;;;;;;5052131;28;20676;-72
2021/10/19 12:01:02;;;;;;;3.15;2.85;;;13.60;99.90;;;;;;5052263;28;20565;-72
2021/10/19 12:03:30;;;;;;;3.45;2.60;;;13.60;99.90;;;;;;5051882;28;20208;-72
2021/10/19 12:05:57;;;;;;;3.37;2.63;;;13.60;99.90;;;;;;5051408;28;20274;-72
2021/10/19 12:08:30;;;;;;;2.85;2.65;;;13.70;99.90;;;;;;5051941;28;20463;-72
2021/10/19 12:10:57;;;;;;;2.60;2.40;;;13.70;99.90;;;;;;5051824;28;20662;-72
2021/10/19 12:13:28;;;;;;;3.53;2.80;;;13.70;99.90;;;;;;5051800;28;20542;-72
2021/10/19 12:15:55;;;;;;;3.58;2.88;;;13.60;99.90;;;;;;5051105;28;20487;-72
2021/10/19 12:18:22;;;;;;;3.70;3.20;;;13.60;99.90;;;;;;5051841;28;20205;-72
2021/10/19 12:20:49;;;;;;;3.00;2.70;;;13.70;99.90;;;;;;5051644;28;20459;-72
2021/10/19 12:23:18;;;;;;;3.33;3.03;;;13.60;99.90;;;;;;5051812;28;20463;-72
2021/10/19 12:25:47;;;;;;;3.30;2.60;;;13.60;99.90;;;;;;5050872;28;20533;-71
2021/10/19 12:28:18;;;;;;;4.53;2.57;;;13.50;99.90;;;;;;5051822;28;20828;-72
2021/10/19 12:30:47;;;;;;;3.70;2.97;;;13.50;99.90;;;;;;5051722;28;20482;-72
2021/10/19 12:33:19;;;;;;;3.80;3.20;;;13.40;99.90;;;;;;5051700;28;20459;-72
2021/10/19 12:35:51;;;;;;;3.65;3.00;;;13.40;99.90;;;;;;5051009;28;20271;-72
2021/10/19 12:38:18;;;;;;;4.43;2.83;;;13.40;99.90;;;;;;5051703;28;20212;-72
2021/10/19 12:40:45;;;;;;;3.73;2.93;;;13.40;99.90;;;;;;5051131;28;20829;-72
2021/10/19 12:43:12;;;;;;;3.40;3.10;;;13.40;99.90;;;;;;5051593;28;20840;-72
2021/10/19 12:45:39;;;;;;;6.13;3.40;;;13.30;99.90;;;;;;5051093;28;20217;-72
2021/10/19 12:48:08;;;;;;;4.87;3.60;;;13.40;99.90;;;;;;5051213;28;20455;-72
2021/10/19 12:50:36;;;;;;;4.10;3.15;;;13.40;99.90;;;;;;5051255;28;20463;-72
2021/10/19 12:53:04;;;;;;;3.67;3.37;;;13.40;99.90;;;;;;5051292;28;20223;-72
2021/10/19 12:55:30;;;;;;;4.00;3.60;;;13.40;99.90;;;;;;5050888;28;21008;-72
2021/10/19 12:57:58;;;;;;;4.50;3.90;;;13.50;99.90;;;;;;5050467;28;20589;-72
2021/10/19 13:00:25;;;;;;;3.93;3.50;;;13.60;99.90;;;;;;5051061;28;20471;-72
2021/10/19 13:02:52;;;;;;;5.00;3.50;;;13.80;99.90;;;;;;5050780;28;20487;-72
2021/10/19 13:05:20;;;;;;;4.23;3.57;;;14.20;99.90;;;;;;5050949;28;20480;-72
2021/10/19 13:07:47;;;;;;;5.53;4.20;;;14.50;99.90;;;;;;5050169;28;20475;-72
2021/10/19 13:10:14;;;;;;;3.70;3.13;;;14.90;99.90;;;;;;5050839;28;20455;-72
2021/10/19 13:12:40;;;;;;;6.07;3.30;;;15.20;99.90;;;;;;5050554;28;20455;-72
2021/10/19 13:15:08;;;;;;;3.00;2.70;;;15.70;99.90;;;;;;5050409;28;20506;-72
2021/10/19 13:17:34;;;;;;;3.50;3.13;;;15.90;99.90;;;;;;5049795;28;20848;-72
2021/10/19 13:20:01;;;;;;;4.80;3.90;;;16.00;99.90;;;;;;5050492;28;20456;-72
2021/10/19 13:22:29;;;;;;;3.80;3.40;;;16.10;99.90;;;;;;5050867;28;20465;-72
2021/10/19 13:24:56;;;;;;;3.80;3.40;;;16.00;99.90;;;;;;5050276;28;20483;-72
2021/10/19 13:27:23;;;;;;;6.47;3.57;;;16.00;99.90;;;;;;5042749;28;20455;-72
2021/10/19 13:29:50;;;;;;;4.23;3.13;;;15.90;99.90;;;;;;5049439;28;20455;-72
2021/10/19 13:32:17;;;;;;;4.07;3.67;;;15.80;99.90;;;;;;5050188;28;20462;-72
2021/10/19 13:34:44;;;;;;;3.57;3.10;;;15.70;99.90;;;;;;5049379;28;20559;-72
2021/10/19 13:37:12;;;;;;;4.90;3.03;;;15.70;99.90;;;;;;5049597;28;20485;-72
2021/10/19 13:39:40;;;;;;;4.17;3.20;;;15.60;99.90;;;;;;5049545;28;20456;-72
2021/10/19 13:42:08;;;;;;;4.07;3.67;;;15.60;99.90;;;;;;5049171;28;20471;-72
2021/10/19 13:44:35;;;;;;;3.50;3.07;;;15.60;99.90;;;;;;5049374;28;20821;-72
2021/10/19 13:47:02;;;;;;;3.93;3.53;;;15.50;99.90;;;;;;5048656;28;20870;-72
2021/10/19 13:49:29;;;;;;;3.97;3.67;;;15.50;99.90;;;;;;5049443;28;20466;-72
2021/10/19 13:51:57;;;;;;;4.00;3.60;;;15.50;99.90;;;;;;5049274;28;20459;-72
2021/10/19 13:54:24;;;;;;;4.23;3.77;;;15.50;99.90;;;;;;5046680;28;20456;-72
2021/10/19 13:56:52;;;;;;;4.80;3.37;;;15.50;99.90;;;;;;5049037;28;20483;-72
2021/10/19 13:59:19;;;;;;;4.43;3.70;;;15.50;99.90;;;;;;5049211;28;20475;-72